sensor_id;sensor_type;location;lat;lon;timestamp;P1;durP1;ratioP1;P2;durP2;ratioP2
22606;SDS011;11470;20.968;105.834;2023-09-30T00:00:43;74.10;;;43.63;;
22606;SDS011;11470;20.968;105.834;2023-09-30T00:05:49;68.45;;;43.65;;
22606;SDS011;11470;20.968;105.834;2023-09-30T00:10:54;64.53;;;39.57;;
22606;SDS011;11470;20.968;105.834;2023-09-30T00:15:59;73.63;;;45.40;;
22606;SDS011;11470;20.968;105.834;2023-09-30T00:21:03;64.82;;;38.97;;
22606;SDS011;11470;20.968;105.834;2023-09-30T00:31:14;83.90;;;51.60;;
22606;SDS011;11470;20.968;105.834;2023-09-30T00:36:19;59.40;;;38.53;;
22606;SDS011;11470;20.968;105.834;2023-09-30T00:41:25;63.13;;;41.08;;
22606;SDS011;11470;20.968;105.834;2023-09-30T00:46:32;62.38;;;40.60;;
22606;SDS011;11470;20.968;105.834;2023-09-30T00:51:39;60.97;;;40.88;;
22606;SDS011;11470;20.968;105.834;2023-09-30T00:56:45;66.78;;;41.45;;
22606;SDS011;11470;20.968;105.834;2023-09-30T01:01:52;54.47;;;36.95;;
22606;SDS011;11470;20.968;105.834;2023-09-30T01:07:02;73.82;;;50.50;;
22606;SDS011;11470;20.968;105.834;2023-09-30T01:12:08;49.35;;;33.30;;
22606;SDS011;11470;20.968;105.834;2023-09-30T01:22:19;56.15;;;35.13;;
22606;SDS011;11470;20.968;105.834;2023-09-30T01:27:24;67.22;;;41.03;;
22606;SDS011;11470;20.968;105.834;2023-09-30T01:32:29;70.30;;;43.20;;
22606;SDS011;11470;20.968;105.834;2023-09-30T01:37:35;56.08;;;36.88;;
22606;SDS011;11470;20.968;105.834;2023-09-30T01:42:40;44.30;;;28.63;;
22606;SDS011;11470;20.968;105.834;2023-09-30T01:47:46;51.45;;;36.60;;
22606;SDS011;11470;20.968;105.834;2023-09-30T01:52:51;54.92;;;39.47;;
22606;SDS011;11470;20.968;105.834;2023-09-30T01:57:57;57.78;;;40.50;;
22606;SDS011;11470;20.968;105.834;2023-09-30T02:03:02;54.30;;;38.63;;
22606;SDS011;11470;20.968;105.834;2023-09-30T02:13:12;65.03;;;44.45;;
22606;SDS011;11470;20.968;105.834;2023-09-30T02:18:21;47.08;;;33.47;;
22606;SDS011;11470;20.968;105.834;2023-09-30T02:28:31;75.68;;;50.30;;
22606;SDS011;11470;20.968;105.834;2023-09-30T02:33:37;54.75;;;35.58;;
22606;SDS011;11470;20.968;105.834;2023-09-30T02:38:43;72.97;;;48.20;;
22606;SDS011;11470;20.968;105.834;2023-09-30T02:43:50;57.42;;;39.58;;
22606;SDS011;11470;20.968;105.834;2023-09-30T02:48:55;70.23;;;42.17;;
22606;SDS011;11470;20.968;105.834;2023-09-30T02:54:00;63.42;;;46.40;;
22606;SDS011;11470;20.968;105.834;2023-09-30T02:59:06;77.28;;;52.53;;
22606;SDS011;11470;20.968;105.834;2023-09-30T03:04:11;68.40;;;47.07;;
22606;SDS011;11470;20.968;105.834;2023-09-30T03:09:16;81.37;;;50.30;;
22606;SDS011;11470;20.968;105.834;2023-09-30T03:14:22;75.70;;;48.67;;
22606;SDS011;11470;20.968;105.834;2023-09-30T03:19:27;86.85;;;58.40;;
22606;SDS011;11470;20.968;105.834;2023-09-30T03:24:32;87.67;;;56.47;;
22606;SDS011;11470;20.968;105.834;2023-09-30T03:29:38;81.20;;;52.28;;
22606;SDS011;11470;20.968;105.834;2023-09-30T03:34:44;74.10;;;49.17;;
22606;SDS011;11470;20.968;105.834;2023-09-30T03:39:50;84.10;;;54.47;;
22606;SDS011;11470;20.968;105.834;2023-09-30T03:44:55;109.23;;;63.90;;
22606;SDS011;11470;20.968;105.834;2023-09-30T03:50:01;98.40;;;56.53;;
22606;SDS011;11470;20.968;105.834;2023-09-30T03:55:07;95.88;;;56.15;;
22606;SDS011;11470;20.968;105.834;2023-09-30T04:00:15;84.25;;;58.78;;
22606;SDS011;11470;20.968;105.834;2023-09-30T04:05:24;78.30;;;55.92;;
22606;SDS011;11470;20.968;105.834;2023-09-30T04:10:33;88.50;;;53.97;;
22606;SDS011;11470;20.968;105.834;2023-09-30T04:15:38;73.73;;;51.53;;
22606;SDS011;11470;20.968;105.834;2023-09-30T04:21:02;69.88;;;48.10;;
22606;SDS011;11470;20.968;105.834;2023-09-30T04:38:15;56.50;;;40.70;;
22606;SDS011;11470;20.968;105.834;2023-09-30T04:43:20;60.90;;;45.20;;
22606;SDS011;11470;20.968;105.834;2023-09-30T04:48:25;86.20;;;55.00;;
22606;SDS011;11470;20.968;105.834;2023-09-30T04:53:30;79.18;;;55.20;;
22606;SDS011;11470;20.968;105.834;2023-09-30T04:58:37;69.50;;;49.38;;
22606;SDS011;11470;20.968;105.834;2023-09-30T05:03:42;85.13;;;53.90;;
22606;SDS011;11470;20.968;105.834;2023-09-30T05:08:47;77.88;;;54.13;;
22606;SDS011;11470;20.968;105.834;2023-09-30T05:13:53;82.25;;;56.55;;
22606;SDS011;11470;20.968;105.834;2023-09-30T05:18:58;69.30;;;52.17;;
22606;SDS011;11470;20.968;105.834;2023-09-30T05:24:04;71.03;;;51.35;;
22606;SDS011;11470;20.968;105.834;2023-09-30T05:29:09;49.25;;;36.38;;
22606;SDS011;11470;20.968;105.834;2023-09-30T05:34:14;63.93;;;44.13;;
22606;SDS011;11470;20.968;105.834;2023-09-30T05:39:18;42.50;;;29.63;;
22606;SDS011;11470;20.968;105.834;2023-09-30T05:49:30;51.45;;;38.30;;
22606;SDS011;11470;20.968;105.834;2023-09-30T05:54:36;53.55;;;37.92;;
22606;SDS011;11470;20.968;105.834;2023-09-30T05:59:41;48.17;;;37.95;;
22606;SDS011;11470;20.968;105.834;2023-09-30T06:04:46;56.33;;;43.42;;
22606;SDS011;11470;20.968;105.834;2023-09-30T06:09:54;54.08;;;37.17;;
22606;SDS011;11470;20.968;105.834;2023-09-30T06:15:01;50.60;;;36.00;;
22606;SDS011;11470;20.968;105.834;2023-09-30T06:20:06;53.10;;;37.78;;
22606;SDS011;11470;20.968;105.834;2023-09-30T06:25:19;50.08;;;36.58;;
22606;SDS011;11470;20.968;105.834;2023-09-30T06:30:27;40.80;;;30.63;;
22606;SDS011;11470;20.968;105.834;2023-09-30T06:35:37;51.72;;;36.85;;
22606;SDS011;11470;20.968;105.834;2023-09-30T06:40:54;46.90;;;34.42;;
22606;SDS011;11470;20.968;105.834;2023-09-30T06:46:05;42.63;;;32.53;;
22606;SDS011;11470;20.968;105.834;2023-09-30T06:51:14;41.67;;;31.35;;
22606;SDS011;11470;20.968;105.834;2023-09-30T06:56:21;45.97;;;34.75;;
22606;SDS011;11470;20.968;105.834;2023-09-30T07:01:26;35.28;;;25.38;;
22606;SDS011;11470;20.968;105.834;2023-09-30T07:06:32;36.83;;;28.75;;
22606;SDS011;11470;20.968;105.834;2023-09-30T07:11:37;50.65;;;38.17;;
22606;SDS011;11470;20.968;105.834;2023-09-30T07:16:43;49.28;;;39.63;;
22606;SDS011;11470;20.968;105.834;2023-09-30T07:21:48;52.75;;;37.42;;
22606;SDS011;11470;20.968;105.834;2023-09-30T07:27:06;49.95;;;37.67;;
22606;SDS011;11470;20.968;105.834;2023-09-30T07:32:28;48.67;;;40.25;;
22606;SDS011;11470;20.968;105.834;2023-09-30T07:37:35;42.40;;;32.47;;
22606;SDS011;11470;20.968;105.834;2023-09-30T07:42:40;53.00;;;39.57;;
22606;SDS011;11470;20.968;105.834;2023-09-30T07:47:46;50.15;;;36.72;;
22606;SDS011;11470;20.968;105.834;2023-09-30T07:52:51;51.45;;;35.88;;
22606;SDS011;11470;20.968;105.834;2023-09-30T07:57:57;44.35;;;33.28;;
22606;SDS011;11470;20.968;105.834;2023-09-30T08:03:04;43.28;;;34.03;;
22606;SDS011;11470;20.968;105.834;2023-09-30T08:08:10;45.33;;;34.03;;
22606;SDS011;11470;20.968;105.834;2023-09-30T08:13:15;42.67;;;32.40;;
22606;SDS011;11470;20.968;105.834;2023-09-30T08:18:21;47.90;;;35.22;;
22606;SDS011;11470;20.968;105.834;2023-09-30T08:28:31;54.22;;;40.45;;
22606;SDS011;11470;20.968;105.834;2023-09-30T08:33:36;49.75;;;38.70;;
22606;SDS011;11470;20.968;105.834;2023-09-30T08:38:46;51.85;;;40.42;;
22606;SDS011;11470;20.968;105.834;2023-09-30T08:43:51;52.58;;;40.55;;
22606;SDS011;11470;20.968;105.834;2023-09-30T08:49:02;55.92;;;40.60;;
22606;SDS011;11470;20.968;105.834;2023-09-30T08:54:11;63.13;;;41.45;;
22606;SDS011;11470;20.968;105.834;2023-09-30T08:59:16;56.25;;;43.05;;
22606;SDS011;11470;20.968;105.834;2023-09-30T09:09:27;56.58;;;41.08;;
22606;SDS011;11470;20.968;105.834;2023-09-30T09:14:38;62.70;;;45.38;;
22606;SDS011;11470;20.968;105.834;2023-09-30T09:19:57;58.03;;;44.40;;
22606;SDS011;11470;20.968;105.834;2023-09-30T09:25:04;62.05;;;43.00;;
22606;SDS011;11470;20.968;105.834;2023-09-30T09:30:18;57.90;;;44.95;;
22606;SDS011;11470;20.968;105.834;2023-09-30T09:35:28;61.58;;;46.40;;
22606;SDS011;11470;20.968;105.834;2023-09-30T09:40:38;71.95;;;49.03;;
22606;SDS011;11470;20.968;105.834;2023-09-30T09:45:44;64.13;;;47.17;;
22606;SDS011;11470;20.968;105.834;2023-09-30T09:50:50;63.30;;;46.20;;
22606;SDS011;11470;20.968;105.834;2023-09-30T10:01:02;64.07;;;46.97;;
22606;SDS011;11470;20.968;105.834;2023-09-30T10:06:09;69.53;;;48.83;;
22606;SDS011;11470;20.968;105.834;2023-09-30T10:11:18;71.10;;;50.75;;
22606;SDS011;11470;20.968;105.834;2023-09-30T10:43:40;98.88;;;69.25;;
22606;SDS011;11470;20.968;105.834;2023-09-30T10:48:45;86.57;;;61.75;;
22606;SDS011;11470;20.968;105.834;2023-09-30T10:53:52;82.88;;;58.08;;
22606;SDS011;11470;20.968;105.834;2023-09-30T10:59:03;72.93;;;51.20;;
22606;SDS011;11470;20.968;105.834;2023-09-30T11:04:16;70.30;;;52.05;;
22606;SDS011;11470;20.968;105.834;2023-09-30T11:09:25;55.85;;;39.35;;
22606;SDS011;11470;20.968;105.834;2023-09-30T11:14:33;63.15;;;47.75;;
22606;SDS011;11470;20.968;105.834;2023-09-30T11:19:47;40.53;;;22.48;;
22606;SDS011;11470;20.968;105.834;2023-09-30T11:25:17;40.80;;;23.35;;
22606;SDS011;11470;20.968;105.834;2023-09-30T11:30:23;48.33;;;37.53;;
22606;SDS011;11470;20.968;105.834;2023-09-30T11:35:31;51.58;;;38.40;;
22606;SDS011;11470;20.968;105.834;2023-09-30T11:40:39;42.67;;;24.20;;
22606;SDS011;11470;20.968;105.834;2023-09-30T11:50:51;51.17;;;35.83;;
22606;SDS011;11470;20.968;105.834;2023-09-30T11:56:07;53.35;;;38.60;;
22606;SDS011;11470;20.968;105.834;2023-09-30T12:01:14;51.00;;;37.88;;
22606;SDS011;11470;20.968;105.834;2023-09-30T12:06:20;51.78;;;37.92;;
22606;SDS011;11470;20.968;105.834;2023-09-30T12:11:25;50.70;;;40.73;;
22606;SDS011;11470;20.968;105.834;2023-09-30T12:16:32;54.20;;;38.55;;
22606;SDS011;11470;20.968;105.834;2023-09-30T12:21:38;42.53;;;34.50;;
22606;SDS011;11470;20.968;105.834;2023-09-30T12:26:44;41.88;;;31.10;;
22606;SDS011;11470;20.968;105.834;2023-09-30T12:31:52;34.10;;;27.40;;
22606;SDS011;11470;20.968;105.834;2023-09-30T12:36:58;31.08;;;24.35;;
22606;SDS011;11470;20.968;105.834;2023-09-30T12:42:03;35.05;;;25.50;;
22606;SDS011;11470;20.968;105.834;2023-09-30T12:47:12;37.17;;;25.92;;
22606;SDS011;11470;20.968;105.834;2023-09-30T12:52:17;34.58;;;26.13;;
22606;SDS011;11470;20.968;105.834;2023-09-30T12:57:22;38.88;;;28.67;;
22606;SDS011;11470;20.968;105.834;2023-09-30T13:02:30;44.33;;;31.75;;
22606;SDS011;11470;20.968;105.834;2023-09-30T13:07:35;43.95;;;33.55;;
22606;SDS011;11470;20.968;105.834;2023-09-30T13:12:43;45.15;;;33.65;;
22606;SDS011;11470;20.968;105.834;2023-09-30T13:17:48;46.53;;;34.15;;
22606;SDS011;11470;20.968;105.834;2023-09-30T13:22:54;45.90;;;35.28;;
22606;SDS011;11470;20.968;105.834;2023-09-30T13:27:59;49.17;;;38.00;;
22606;SDS011;11470;20.968;105.834;2023-09-30T13:38:09;62.03;;;41.65;;
22606;SDS011;11470;20.968;105.834;2023-09-30T13:43:14;61.17;;;45.83;;
22606;SDS011;11470;20.968;105.834;2023-09-30T13:48:19;66.70;;;47.15;;
22606;SDS011;11470;20.968;105.834;2023-09-30T13:53:25;70.03;;;52.13;;
22606;SDS011;11470;20.968;105.834;2023-09-30T13:58:30;69.90;;;50.33;;
22606;SDS011;11470;20.968;105.834;2023-09-30T14:03:36;69.07;;;50.78;;
22606;SDS011;11470;20.968;105.834;2023-09-30T14:08:41;66.63;;;51.17;;
22606;SDS011;11470;20.968;105.834;2023-09-30T14:13:46;60.50;;;42.70;;
22606;SDS011;11470;20.968;105.834;2023-09-30T14:18:52;67.03;;;48.45;;
22606;SDS011;11470;20.968;105.834;2023-09-30T14:23:59;65.53;;;44.97;;
22606;SDS011;11470;20.968;105.834;2023-09-30T14:29:05;63.45;;;46.10;;
22606;SDS011;11470;20.968;105.834;2023-09-30T14:39:16;61.10;;;47.25;;
22606;SDS011;11470;20.968;105.834;2023-09-30T14:49:27;64.80;;;45.90;;
22606;SDS011;11470;20.968;105.834;2023-09-30T14:54:37;58.45;;;41.95;;
22606;SDS011;11470;20.968;105.834;2023-09-30T14:59:42;59.17;;;44.10;;
22606;SDS011;11470;20.968;105.834;2023-09-30T15:04:48;57.28;;;42.35;;
22606;SDS011;11470;20.968;105.834;2023-09-30T15:09:53;59.38;;;42.05;;
22606;SDS011;11470;20.968;105.834;2023-09-30T15:21:53;53.70;;;40.20;;
22606;SDS011;11470;20.968;105.834;2023-09-30T15:26:58;56.37;;;39.50;;
22606;SDS011;11470;20.968;105.834;2023-09-30T15:32:04;56.53;;;39.60;;
22606;SDS011;11470;20.968;105.834;2023-09-30T15:37:12;62.72;;;44.28;;
22606;SDS011;11470;20.968;105.834;2023-09-30T15:42:17;50.23;;;37.17;;
22606;SDS011;11470;20.968;105.834;2023-09-30T15:47:22;61.17;;;39.63;;
22606;SDS011;11470;20.968;105.834;2023-09-30T15:52:27;59.15;;;42.58;;
22606;SDS011;11470;20.968;105.834;2023-09-30T15:57:33;60.67;;;40.28;;
22606;SDS011;11470;20.968;105.834;2023-09-30T16:02:38;57.05;;;42.45;;
22606;SDS011;11470;20.968;105.834;2023-09-30T16:07:43;54.53;;;38.13;;
22606;SDS011;11470;20.968;105.834;2023-09-30T16:12:48;59.47;;;41.50;;
22606;SDS011;11470;20.968;105.834;2023-09-30T16:17:57;58.97;;;39.15;;
22606;SDS011;11470;20.968;105.834;2023-09-30T16:28:07;60.95;;;39.00;;
22606;SDS011;11470;20.968;105.834;2023-09-30T16:33:14;59.47;;;39.08;;
22606;SDS011;11470;20.968;105.834;2023-09-30T16:38:19;60.63;;;41.10;;
22606;SDS011;11470;20.968;105.834;2023-09-30T16:43:25;59.80;;;38.30;;
22606;SDS011;11470;20.968;105.834;2023-09-30T16:48:30;62.60;;;40.45;;
22606;SDS011;11470;20.968;105.834;2023-09-30T16:58:41;65.65;;;38.45;;
22606;SDS011;11470;20.968;105.834;2023-09-30T17:03:47;59.33;;;37.65;;
22606;SDS011;11470;20.968;105.834;2023-09-30T17:08:52;58.28;;;38.05;;
22606;SDS011;11470;20.968;105.834;2023-09-30T17:13:57;65.53;;;35.70;;
22606;SDS011;11470;20.968;105.834;2023-09-30T17:19:02;57.55;;;36.65;;
22606;SDS011;11470;20.968;105.834;2023-09-30T17:24:09;58.67;;;39.50;;
22606;SDS011;11470;20.968;105.834;2023-09-30T17:29:14;60.35;;;38.35;;
22606;SDS011;11470;20.968;105.834;2023-09-30T17:34:20;54.97;;;37.00;;
22606;SDS011;11470;20.968;105.834;2023-09-30T17:39:25;58.88;;;37.97;;
22606;SDS011;11470;20.968;105.834;2023-09-30T17:44:31;60.60;;;36.67;;
22606;SDS011;11470;20.968;105.834;2023-09-30T17:49:37;56.57;;;35.17;;
22606;SDS011;11470;20.968;105.834;2023-09-30T17:54:42;52.15;;;33.72;;
22606;SDS011;11470;20.968;105.834;2023-09-30T17:59:48;55.28;;;34.83;;
22606;SDS011;11470;20.968;105.834;2023-09-30T18:04:53;51.27;;;35.33;;
22606;SDS011;11470;20.968;105.834;2023-09-30T18:15:03;45.90;;;32.50;;
22606;SDS011;11470;20.968;105.834;2023-09-30T18:20:10;43.10;;;29.80;;
22606;SDS011;11470;20.968;105.834;2023-09-30T18:30:20;45.05;;;31.10;;
22606;SDS011;11470;20.968;105.834;2023-09-30T18:35:25;40.23;;;27.70;;
22606;SDS011;11470;20.968;105.834;2023-09-30T18:40:31;44.20;;;29.23;;
22606;SDS011;11470;20.968;105.834;2023-09-30T18:45:37;40.50;;;28.33;;
22606;SDS011;11470;20.968;105.834;2023-09-30T18:50:44;42.60;;;29.20;;
22606;SDS011;11470;20.968;105.834;2023-09-30T18:55:54;40.28;;;29.20;;
22606;SDS011;11470;20.968;105.834;2023-09-30T19:01:00;44.65;;;30.05;;
22606;SDS011;11470;20.968;105.834;2023-09-30T19:06:07;40.40;;;29.10;;
22606;SDS011;11470;20.968;105.834;2023-09-30T19:11:12;43.15;;;29.92;;
22606;SDS011;11470;20.968;105.834;2023-09-30T19:16:19;45.20;;;29.75;;
22606;SDS011;11470;20.968;105.834;2023-09-30T19:21:25;39.85;;;28.50;;
22606;SDS011;11470;20.968;105.834;2023-09-30T19:26:30;41.40;;;28.40;;
22606;SDS011;11470;20.968;105.834;2023-09-30T19:31:35;41.53;;;27.73;;
22606;SDS011;11470;20.968;105.834;2023-09-30T19:36:40;53.92;;;30.98;;
22606;SDS011;11470;20.968;105.834;2023-09-30T19:41:45;46.88;;;30.75;;
22606;SDS011;11470;20.968;105.834;2023-09-30T19:46:50;43.97;;;29.53;;
22606;SDS011;11470;20.968;105.834;2023-09-30T19:51:56;53.63;;;30.33;;
22606;SDS011;11470;20.968;105.834;2023-09-30T19:57:03;49.70;;;30.48;;
22606;SDS011;11470;20.968;105.834;2023-09-30T20:02:09;52.15;;;32.28;;
22606;SDS011;11470;20.968;105.834;2023-09-30T20:07:14;49.22;;;31.60;;
22606;SDS011;11470;20.968;105.834;2023-09-30T20:12:20;56.95;;;35.85;;
22606;SDS011;11470;20.968;105.834;2023-09-30T20:17:26;55.20;;;35.15;;
22606;SDS011;11470;20.968;105.834;2023-09-30T20:22:31;50.78;;;34.38;;
22606;SDS011;11470;20.968;105.834;2023-09-30T20:27:37;48.67;;;33.65;;
22606;SDS011;11470;20.968;105.834;2023-09-30T20:32:45;56.47;;;34.33;;
22606;SDS011;11470;20.968;105.834;2023-09-30T20:37:50;46.33;;;32.90;;
22606;SDS011;11470;20.968;105.834;2023-09-30T20:42:55;50.50;;;32.50;;
22606;SDS011;11470;20.968;105.834;2023-09-30T20:48:00;41.40;;;29.02;;
22606;SDS011;11470;20.968;105.834;2023-09-30T20:53:06;45.92;;;31.85;;
22606;SDS011;11470;20.968;105.834;2023-09-30T20:58:11;47.78;;;31.33;;
22606;SDS011;11470;20.968;105.834;2023-09-30T21:03:16;50.78;;;32.58;;
22606;SDS011;11470;20.968;105.834;2023-09-30T21:08:22;47.83;;;30.15;;
22606;SDS011;11470;20.968;105.834;2023-09-30T21:13:27;47.10;;;30.23;;
22606;SDS011;11470;20.968;105.834;2023-09-30T21:18:32;53.80;;;32.90;;
22606;SDS011;11470;20.968;105.834;2023-09-30T21:23:37;48.58;;;30.88;;
22606;SDS011;11470;20.968;105.834;2023-09-30T21:28:42;45.97;;;30.38;;
22606;SDS011;11470;20.968;105.834;2023-09-30T21:33:50;57.30;;;34.72;;
22606;SDS011;11470;20.968;105.834;2023-09-30T21:38:55;53.65;;;33.83;;
22606;SDS011;11470;20.968;105.834;2023-09-30T21:44:00;52.83;;;34.38;;
22606;SDS011;11470;20.968;105.834;2023-09-30T21:49:05;57.53;;;37.70;;
22606;SDS011;11470;20.968;105.834;2023-09-30T21:54:12;66.97;;;40.92;;
22606;SDS011;11470;20.968;105.834;2023-09-30T21:59:16;78.77;;;46.77;;
22606;SDS011;11470;20.968;105.834;2023-09-30T22:04:21;55.50;;;39.33;;
22606;SDS011;11470;20.968;105.834;2023-09-30T22:09:26;57.63;;;38.00;;
22606;SDS011;11470;20.968;105.834;2023-09-30T22:14:32;62.03;;;38.20;;
22606;SDS011;11470;20.968;105.834;2023-09-30T22:19:37;60.90;;;39.40;;
22606;SDS011;11470;20.968;105.834;2023-09-30T22:24:42;70.40;;;42.63;;
22606;SDS011;11470;20.968;105.834;2023-09-30T22:29:47;71.10;;;43.35;;
22606;SDS011;11470;20.968;105.834;2023-09-30T22:34:52;73.60;;;42.28;;
22606;SDS011;11470;20.968;105.834;2023-09-30T22:39:58;59.80;;;38.35;;
22606;SDS011;11470;20.968;105.834;2023-09-30T22:45:03;54.15;;;36.15;;
22606;SDS011;11470;20.968;105.834;2023-09-30T23:00:21;66.72;;;37.00;;
22606;SDS011;11470;20.968;105.834;2023-09-30T23:05:30;59.28;;;40.10;;
22606;SDS011;11470;20.968;105.834;2023-09-30T23:10:36;60.15;;;41.13;;
22606;SDS011;11470;20.968;105.834;2023-09-30T23:15:41;77.40;;;47.25;;
22606;SDS011;11470;20.968;105.834;2023-09-30T23:20:46;64.65;;;42.20;;
22606;SDS011;11470;20.968;105.834;2023-09-30T23:25:52;60.50;;;41.22;;
22606;SDS011;11470;20.968;105.834;2023-09-30T23:30:58;67.50;;;44.35;;
22606;SDS011;11470;20.968;105.834;2023-09-30T23:36:09;68.47;;;45.17;;
22606;SDS011;11470;20.968;105.834;2023-09-30T23:41:15;79.57;;;50.88;;
22606;SDS011;11470;20.968;105.834;2023-09-30T23:46:20;78.43;;;49.70;;
22606;SDS011;11470;20.968;105.834;2023-09-30T23:51:26;74.68;;;48.47;;
22606;SDS011;11470;20.968;105.834;2023-09-30T23:56:33;74.88;;;48.13;;
